Time;durP1;ratioP1;P1;durP2;ratioP2;P2;SDS_P1;SDS_P2;PMS_P1;PMS_P2;Temp;Humidity;BMP_temperature;BMP_pressure;BME280_temperature;BME280_humidity;BME280_pressure;Samples;Min_cycle;Max_cycle;Signal;HPM_P1;HPM_P2
2023/05/01 00:01:47;;;;;;;16.60;10.30;;;;;;;3.36;67.64;101153.61;106039;277;39562;-73
2023/05/01 00:04:22;;;;;;;17.50;11.10;;;;;;;3.40;67.67;101151.20;105368;277;39191;-73
2023/05/01 00:06:56;;;;;;;20.90;13.30;;;;;;;3.42;67.60;101155.86;105638;277;40438;-71
2023/05/01 00:09:32;;;;;;;18.60;11.80;;;;;;;3.42;67.48;101159.30;105657;277;40276;-71
2023/05/01 00:12:06;;;;;;;18.00;13.00;;;;;;;3.39;67.61;101158.96;105667;277;38396;-71
2023/05/01 00:14:40;;;;;;;19.40;12.70;;;;;;;3.37;67.45;101161.87;106028;273;38813;-71
2023/05/01 00:17:14;;;;;;;20.50;11.90;;;;;;;3.34;67.43;101162.55;106048;277;38497;-71
2023/05/01 00:19:51;;;;;;;18.70;11.30;;;;;;;3.35;67.36;101159.13;105388;277;39978;-72
2023/05/01 00:22:25;;;;;;;16.30;10.00;;;;;;;3.37;67.36;101158.42;106013;277;38406;-72
2023/05/01 00:24:59;;;;;;;14.30;9.40;;;;;;;3.38;67.42;101160.33;106045;277;38466;-71
2023/05/01 00:27:33;;;;;;;17.90;9.50;;;;;;;3.39;67.34;101159.64;105650;277;38966;-71
2023/05/01 00:30:08;;;;;;;12.70;8.10;;;;;;;3.37;67.33;101157.05;105632;277;38679;-73
2023/05/01 00:32:42;;;;;;;16.20;8.70;;;;;;;3.35;67.26;101162.05;105647;277;38826;-73
2023/05/01 00:35:16;;;;;;;11.40;7.70;;;;;;;3.32;67.30;101164.79;105640;265;39658;-73
2023/05/01 00:37:50;;;;;;;12.60;6.50;;;;;;;3.28;67.46;101162.35;105525;277;174885;-73
2023/05/01 00:40:24;;;;;;;10.30;6.60;;;;;;;3.25;67.42;101160.96;105624;277;39395;-72
2023/05/01 00:42:58;;;;;;;11.10;6.50;;;;;;;3.21;67.42;101159.73;106046;277;38247;-72
2023/05/01 00:45:32;;;;;;;11.80;6.60;;;;;;;3.18;67.52;101155.06;105636;277;38517;-73
2023/05/01 00:48:06;;;;;;;14.40;7.00;;;;;;;3.13;67.67;101155.23;105652;277;38249;-73
2023/05/01 00:50:40;;;;;;;8.50;6.80;;;;;;;3.06;67.66;101163.45;105642;277;38352;-72
2023/05/01 00:53:14;;;;;;;12.80;7.10;;;;;;;2.97;67.83;101164.96;106055;277;38235;-72
2023/05/01 00:55:48;;;;;;;9.40;6.70;;;;;;;2.89;68.10;101168.36;105661;277;38615;-73
2023/05/01 00:58:22;;;;;;;12.40;7.40;;;;;;;2.82;68.23;101166.92;105632;277;39639;-73
2023/05/01 01:00:56;;;;;;;13.60;9.00;;;;;;;2.78;68.37;101166.73;106058;277;39464;-73
2023/05/01 01:03:30;;;;;;;16.70;9.80;;;;;;;2.74;68.67;101169.64;106058;277;39402;-73
2023/05/01 01:06:10;;;;;;;16.70;9.50;;;;;;;2.71;68.95;101169.44;105648;277;38456;-73
2023/05/01 01:08:49;;;;;;;17.00;9.80;;;;;;;2.67;69.12;101166.65;106050;277;38715;-73
2023/05/01 01:11:27;;;;;;;12.60;8.90;;;;;;;2.63;69.29;101166.11;105618;277;38561;-73
2023/05/01 01:14:07;;;;;;;14.80;8.70;;;;;;;2.57;69.20;101166.23;105483;277;174891;-73
2023/05/01 01:16:44;;;;;;;13.30;8.50;;;;;;;2.54;69.35;101163.80;105621;277;39712;-73
2023/05/01 01:19:45;;;;;;;13.20;9.00;;;;;;;2.50;69.65;101165.33;106094;285;38499;-73
2023/05/01 01:22:23;;;;;;;14.40;8.80;;;;;;;2.47;69.78;101162.04;105610;277;38218;-71
2023/05/01 01:25:20;;;;;;;12.40;7.90;;;;;;;2.46;69.89;101161.16;106072;277;38535;-73
2023/05/01 01:28:20;;;;;;;12.30;7.70;;;;;;;2.43;70.21;101161.66;106059;277;39641;-73
2023/05/01 01:31:16;;;;;;;;;;;;;;;2.35;70.25;101163.14;105627;277;38646;-73
2023/05/01 01:34:04;;;;;;;12.30;7.00;;;;;;;2.24;70.47;101167.70;106029;277;39002;-74
2023/05/01 01:36:51;;;;;;;13.90;7.70;;;;;;;2.23;70.58;101167.50;105206;277;561946;-74
2023/05/01 01:39:34;;;;;;;13.40;8.20;;;;;;;2.22;70.72;101171.29;105361;278;39017;-71
2023/05/01 01:42:10;;;;;;;14.00;7.80;;;;;;;2.20;70.83;101173.67;105600;277;39406;-74
2023/05/01 01:44:47;;;;;;;12.90;7.90;;;;;;;2.16;70.71;101171.58;106031;277;39804;-73
2023/05/01 01:47:22;;;;;;;15.80;7.70;;;;;;;2.12;70.85;101174.13;106058;277;38535;-73
2023/05/01 01:49:55;;;;;;;12.80;7.90;;;;;;;2.08;71.03;101172.36;105524;277;38508;-72
2023/05/01 01:52:29;;;;;;;11.70;6.80;;;;;;;2.05;70.96;101175.61;105585;280;39475;-72
2023/05/01 01:55:05;;;;;;;13.80;7.40;;;;;;;1.99;70.93;101174.17;105556;277;38982;-71
2023/05/01 01:57:39;;;;;;;12.40;7.60;;;;;;;1.95;71.18;101175.16;106016;277;39427;-71
2023/05/01 02:00:15;;;;;;;10.00;7.10;;;;;;;1.92;71.32;101175.48;105561;277;39953;-70
2023/05/01 02:02:49;;;;;;;13.10;8.00;;;;;;;1.88;71.37;101170.97;105543;277;38279;-71
2023/05/01 02:05:23;;;;;;;12.30;7.10;;;;;;;1.84;71.51;101170.75;106007;277;38591;-70
2023/05/01 02:07:57;;;;;;;15.90;8.30;;;;;;;1.81;71.51;101172.10;105584;277;39904;-72
2023/05/01 02:10:31;;;;;;;9.10;6.10;;;;;;;1.77;71.69;101171.55;105606;277;40153;-71
2023/05/01 02:13:05;;;;;;;12.50;5.90;;;;;;;1.76;71.78;101174.98;105967;277;40092;-70
2023/05/01 02:15:39;;;;;;;9.50;6.00;;;;;;;1.75;71.86;101170.49;105953;277;39456;-70
2023/05/01 02:18:13;;;;;;;9.10;5.70;;;;;;;1.75;71.94;101169.80;105568;277;39059;-70
2023/05/01 02:20:47;;;;;;;10.30;6.70;;;;;;;1.74;72.03;101168.75;105978;277;38942;-72
2023/05/01 02:23:21;;;;;;;11.10;6.30;;;;;;;1.70;72.34;101170.44;105605;277;38518;-71
2023/05/01 02:25:55;;;;;;;11.70;6.50;;;;;;;1.69;72.22;101170.23;106000;277;38682;-74
2023/05/01 02:28:30;;;;;;;10.70;6.10;;;;;;;1.67;72.33;101176.93;105581;277;38297;-74
2023/05/01 02:31:04;;;;;;;10.40;5.60;;;;;;;1.65;72.35;101174.84;105592;277;38361;-73
2023/05/01 02:33:38;;;;;;;8.40;5.80;;;;;;;1.63;72.34;101178.95;105625;277;38788;-73
2023/05/01 02:36:12;;;;;;;10.60;5.90;;;;;;;1.60;72.48;101179.59;105929;277;40000;-72
2023/05/01 02:38:49;;;;;;;9.70;5.80;;;;;;;1.58;72.61;101176.14;105931;277;38804;-72
2023/05/01 02:41:23;;;;;;;12.50;7.40;;;;;;;1.55;72.76;101178.17;105320;277;38531;-72
2023/05/01 02:44:00;;;;;;;10.10;5.70;;;;;;;1.51;72.92;101181.23;105584;277;40193;-73
2023/05/01 02:46:35;;;;;;;9.70;5.90;;;;;;;1.47;73.08;101179.11;105142;277;174941;-72
2023/05/01 02:49:09;;;;;;;10.70;5.50;;;;;;;1.49;73.18;101178.79;105635;277;38435;-73
2023/05/01 02:51:43;;;;;;;9.90;5.30;;;;;;;1.50;73.30;101176.05;105628;277;39445;-73
2023/05/01 02:54:18;;;;;;;10.60;6.30;;;;;;;1.50;73.27;101175.88;105655;277;39212;-73
2023/05/01 02:56:52;;;;;;;10.00;5.90;;;;;;;1.44;73.14;101171.34;105648;277;38824;-74
2023/05/01 02:59:27;;;;;;;12.30;6.60;;;;;;;1.41;73.18;101167.52;105644;277;38350;-73
2023/05/01 03:02:00;;;;;;;15.20;8.10;;;;;;;1.39;73.28;101172.46;105660;277;38510;-73
2023/05/01 03:04:34;;;;;;;14.50;7.90;;;;;;;1.35;73.25;101174.98;105654;277;38683;-73
2023/05/01 03:07:08;;;;;;;11.40;7.10;;;;;;;1.34;73.26;101173.62;105667;277;38253;-73
2023/05/01 03:09:42;;;;;;;15.80;8.90;;;;;;;1.33;73.40;101172.91;105641;274;40345;-73
2023/05/01 03:12:15;;;;;;;13.60;7.60;;;;;;;1.32;73.42;101176.00;105722;277;38858;-73
2023/05/01 03:14:49;;;;;;;12.00;7.60;;;;;;;1.30;73.54;101175.11;105977;277;39501;-72
2023/05/01 03:17:23;;;;;;;10.00;6.20;;;;;;;1.26;73.50;101174.89;105988;277;38862;-72
2023/05/01 03:19:57;;;;;;;13.00;6.40;;;;;;;1.20;73.67;101173.95;105733;277;38309;-71
2023/05/01 03:22:33;;;;;;;8.60;5.60;;;;;;;1.17;73.88;101174.95;105699;277;39991;-71
2023/05/01 03:25:08;;;;;;;10.00;6.00;;;;;;;1.17;74.05;101173.92;105624;277;39615;-71
2023/05/01 03:27:42;;;;;;;9.40;5.90;;;;;;;1.20;74.23;101173.43;105669;277;38282;-71
2023/05/01 03:30:17;;;;;;;9.10;5.50;;;;;;;1.18;74.33;101173.75;105639;277;39640;-72
2023/05/01 03:32:51;;;;;;;9.90;5.80;;;;;;;1.18;74.42;101176.33;106035;277;38287;-71
2023/05/01 03:35:25;;;;;;;8.70;5.70;;;;;;;1.19;74.69;101171.19;106046;277;40135;-71
2023/05/01 03:37:59;;;;;;;10.20;5.50;;;;;;;1.18;74.70;101171.02;105654;277;38736;-71
2023/05/01 03:40:33;;;;;;;7.70;5.00;;;;;;;1.20;74.80;101169.30;105637;277;38387;-72
2023/05/01 03:43:07;;;;;;;11.00;5.50;;;;;;;1.24;74.95;101169.02;105632;277;38818;-72
2023/05/01 03:45:40;;;;;;;10.30;5.30;;;;;;;1.28;75.12;101173.70;106049;277;39441;-73
2023/05/01 03:48:14;;;;;;;10.30;5.30;;;;;;;1.36;75.33;101173.81;105662;277;38479;-74
2023/05/01 03:50:48;;;;;;;8.10;5.10;;;;;;;1.45;75.50;101175.65;105637;277;38487;-72
2023/05/01 03:53:22;;;;;;;8.40;5.70;;;;;;;1.65;75.70;101171.41;105648;277;38515;-72
2023/05/01 03:55:56;;;;;;;9.10;6.20;;;;;;;1.97;75.67;101172.42;105637;277;38244;-74
2023/05/01 03:58:30;;;;;;;12.70;5.90;;;;;;;2.11;75.23;101171.36;105923;277;174890;-74
2023/05/01 04:01:04;;;;;;;13.00;6.90;;;;;;;2.64;76.07;101170.08;105661;277;39801;-74
2023/05/01 04:03:38;;;;;;;13.40;7.60;;;;;;;3.75;77.95;101169.93;105669;277;39814;-74
2023/05/01 04:06:12;;;;;;;10.00;6.00;;;;;;;4.84;77.23;101164.80;105654;277;39407;-74
2023/05/01 04:08:46;;;;;;;10.10;6.20;;;;;;;5.31;72.74;101165.21;105644;277;40509;-74
2023/05/01 04:11:20;;;;;;;10.40;6.10;;;;;;;5.30;70.89;101166.94;105690;277;39389;-72
2023/05/01 04:13:54;;;;;;;12.70;6.80;;;;;;;5.32;70.13;101166.23;106051;277;38401;-72
2023/05/01 04:16:28;;;;;;;10.00;6.50;;;;;;;5.34;69.33;101166.23;105647;277;38483;-73
2023/05/01 04:19:02;;;;;;;11.70;5.90;;;;;;;5.49;69.27;101166.86;106040;277;39108;-73
2023/05/01 04:21:36;;;;;;;11.10;6.90;;;;;;;5.53;68.95;101166.67;105634;277;39382;-74
2023/05/01 04:24:10;;;;;;;11.60;7.00;;;;;;;5.49;68.43;101167.73;106044;277;38562;-74
2023/05/01 04:26:44;;;;;;;10.60;6.40;;;;;;;5.59;68.46;101167.67;106056;277;38302;-74
2023/05/01 04:29:18;;;;;;;10.10;6.30;;;;;;;5.76;68.23;101163.97;105636;277;39696;-74
2023/05/01 04:31:52;;;;;;;11.60;6.30;;;;;;;5.92;68.30;101163.70;105647;277;38259;-74
2023/05/01 04:34:28;;;;;;;9.90;5.90;;;;;;;6.28;68.44;101160.35;106068;277;38583;-74
2023/05/01 04:37:02;;;;;;;9.50;6.20;;;;;;;6.72;68.02;101159.98;105411;278;38457;-72
2023/05/01 04:39:36;;;;;;;9.60;6.00;;;;;;;7.41;68.13;101159.39;105661;266;38499;-74
2023/05/01 04:42:10;;;;;;;8.20;5.60;;;;;;;8.39;67.78;101156.61;106052;265;39580;-74
2023/05/01 04:44:43;;;;;;;8.80;5.40;;;;;;;9.67;67.41;101152.77;105637;278;38471;-73
2023/05/01 04:47:17;;;;;;;9.60;5.40;;;;;;;11.04;64.43;101154.31;106041;265;39032;-73
2023/05/01 04:49:51;;;;;;;9.50;5.20;;;;;;;12.51;60.31;101144.98;105624;277;39443;-73
2023/05/01 04:52:25;;;;;;;8.70;5.50;;;;;;;13.72;55.45;101138.86;105608;277;40109;-73
2023/05/01 04:54:59;;;;;;;6.10;4.00;;;;;;;14.89;51.11;101139.38;105603;277;38543;-74
2023/05/01 04:57:32;;;;;;;9.10;4.40;;;;;;;15.93;46.18;101136.17;105655;277;39324;-75
2023/05/01 05:00:08;;;;;;;8.10;5.20;;;;;;;16.67;42.60;101130.27;105393;275;39671;-75
2023/05/01 05:02:42;;;;;;;12.70;6.80;;;;;;;17.26;41.48;101130.16;105643;277;39338;-75
2023/05/01 05:05:16;;;;;;;10.40;5.60;;;;;;;18.13;39.45;101127.80;105642;277;38939;-75
2023/05/01 05:07:50;;;;;;;9.60;5.60;;;;;;;18.91;37.64;101128.70;106066;277;38578;-75
2023/05/01 05:10:24;;;;;;;10.40;4.50;;;;;;;19.39;35.89;101127.55;106017;277;38984;-74
2023/05/01 05:12:58;;;;;;;8.50;4.90;;;;;;;19.45;34.99;101126.43;105460;277;171396;-72
2023/05/01 05:15:32;;;;;;;9.40;5.20;;;;;;;19.45;34.27;101125.20;105612;277;38394;-75
2023/05/01 05:18:06;;;;;;;8.80;4.60;;;;;;;19.12;33.17;101127.40;106018;277;39457;-75
2023/05/01 05:20:42;;;;;;;8.50;4.50;;;;;;;18.59;33.51;101125.48;105595;277;38276;-73
2023/05/01 05:23:16;;;;;;;7.50;4.60;;;;;;;18.22;33.06;101124.46;105573;277;38281;-73
2023/05/01 05:25:50;;;;;;;7.20;4.70;;;;;;;17.98;33.55;101124.41;106021;277;38586;-75
2023/05/01 05:28:24;;;;;;;8.10;4.20;;;;;;;18.24;33.85;101123.84;105580;278;39661;-75
2023/05/01 05:30:58;;;;;;;6.70;3.90;;;;;;;18.92;32.35;101125.64;105617;277;38390;-72
2023/05/01 05:33:32;;;;;;;6.60;4.60;;;;;;;19.48;31.56;101123.39;105586;277;39541;-72
2023/05/01 05:36:06;;;;;;;8.90;4.80;;;;;;;19.87;30.24;101117.75;105622;277;38773;-72
2023/05/01 05:38:39;;;;;;;7.50;3.80;;;;;;;20.45;29.96;101119.44;106010;277;40265;-72
2023/05/01 05:41:13;;;;;;;7.50;4.30;;;;;;;21.31;29.17;101117.04;105547;277;171339;-74
2023/05/01 05:43:47;;;;;;;3.50;3.00;;;;;;;22.16;27.11;101117.23;105605;277;40022;-74
2023/05/01 05:46:21;;;;;;;5.70;3.50;;;;;;;22.48;26.25;101113.77;105604;277;38329;-74
2023/05/01 05:48:55;;;;;;;3.70;3.00;;;;;;;23.03;25.98;101115.04;105575;277;38400;-74
2023/05/01 05:51:29;;;;;;;4.10;2.60;;;;;;;23.60;24.39;101113.86;105559;277;38503;-74
2023/05/01 05:54:03;;;;;;;5.70;3.40;;;;;;;23.78;23.09;101123.12;105979;277;38479;-74
2023/05/01 05:56:37;;;;;;;4.80;2.80;;;;;;;23.95;22.55;101119.41;106008;277;38416;-74
2023/05/01 05:59:11;;;;;;;3.20;2.50;;;;;;;24.22;22.10;101108.24;105993;277;38541;-74
2023/05/01 06:01:45;;;;;;;3.70;2.20;;;;;;;24.48;21.72;101113.23;105591;277;38394;-74
2023/05/01 06:04:19;;;;;;;3.50;2.10;;;;;;;24.79;21.82;101111.30;105583;277;38369;-74
2023/05/01 06:06:53;;;;;;;3.20;2.50;;;;;;;25.21;20.74;101115.35;105379;277;38443;-74
2023/05/01 06:09:27;;;;;;;4.60;2.30;;;;;;;25.42;20.22;101111.32;105590;277;39828;-74
2023/05/01 06:12:01;;;;;;;3.80;2.30;;;;;;;25.55;19.65;101111.26;105372;277;39997;-75
2023/05/01 06:14:35;;;;;;;2.90;2.00;;;;;;;25.68;19.79;101114.24;105978;277;39492;-75
2023/05/01 06:17:09;;;;;;;3.70;2.50;;;;;;;26.03;19.19;101118.89;105624;277;38236;-75
2023/05/01 06:19:42;;;;;;;6.30;2.50;;;;;;;26.22;18.77;101114.29;105645;277;38518;-75
2023/05/01 06:22:16;;;;;;;3.90;2.60;;;;;;;26.51;18.98;101118.81;105972;277;39991;-75
2023/05/01 06:24:50;;;;;;;4.90;2.30;;;;;;;26.92;18.46;101115.08;105996;277;38386;-75
2023/05/01 06:27:24;;;;;;;5.70;2.50;;;;;;;27.25;17.97;101115.39;105655;277;38287;-75
2023/05/01 06:29:58;;;;;;;4.00;2.30;;;;;;;27.45;17.48;101119.34;105646;277;38490;-74
2023/05/01 06:32:32;;;;;;;4.40;2.60;;;;;;;27.64;17.51;101116.95;105636;277;38223;-74
2023/05/01 06:35:07;;;;;;;4.70;2.80;;;;;;;27.75;17.31;101119.26;105655;277;39248;-75
2023/05/01 06:37:41;;;;;;;3.60;2.60;;;;;;;27.77;17.09;101122.95;105989;277;38403;-76
2023/05/01 06:40:15;;;;;;;3.90;2.10;;;;;;;27.78;16.74;101124.18;105595;277;39204;-75
2023/05/01 06:42:49;;;;;;;3.70;2.30;;;;;;;27.78;16.87;101125.60;105630;277;38394;-75
2023/05/01 06:45:23;;;;;;;2.50;1.90;;;;;;;27.98;16.78;101119.98;105605;277;38402;-75
2023/05/01 06:47:57;;;;;;;4.20;2.30;;;;;;;27.85;16.32;101120.46;105641;277;38504;-75
2023/05/01 06:50:31;;;;;;;3.00;2.10;;;;;;;27.92;16.18;101121.14;105509;277;170935;-74
2023/05/01 06:53:05;;;;;;;4.00;2.10;;;;;;;28.05;15.68;101120.25;106013;277;38529;-74
2023/05/01 06:55:39;;;;;;;3.70;2.10;;;;;;;27.96;15.89;101116.11;105590;277;39067;-74
2023/05/01 06:58:12;;;;;;;2.70;2.50;;;;;;;27.88;15.79;101113.67;106005;277;39413;-74
2023/05/01 07:00:46;;;;;;;4.60;2.50;;;;;;;27.47;15.99;101111.55;105995;277;39776;-76
2023/05/01 07:03:20;;;;;;;3.70;2.50;;;;;;;26.96;16.65;101108.30;105617;277;39449;-76
2023/05/01 07:05:54;;;;;;;6.60;2.50;;;;;;;26.39;17.58;101112.23;105611;277;38275;-73
2023/05/01 07:08:28;;;;;;;5.30;2.40;;;;;;;25.99;17.54;101106.73;105608;277;38825;-73
2023/05/01 07:11:02;;;;;;;3.90;2.30;;;;;;;25.36;17.96;101109.90;105619;277;38799;-75
2023/05/01 07:13:36;;;;;;;5.00;2.40;;;;;;;24.98;18.45;101116.47;105630;277;38503;-75
2023/05/01 07:16:11;;;;;;;4.50;2.30;;;;;;;24.87;18.52;101112.42;105646;277;38256;-76
2023/05/01 07:18:45;;;;;;;3.70;2.00;;;;;;;25.08;19.21;101109.91;105633;277;39434;-76
2023/05/01 07:21:19;;;;;;;3.50;2.10;;;;;;;25.51;18.36;101105.22;105675;277;38710;-76
2023/05/01 07:23:53;;;;;;;4.50;2.30;;;;;;;25.99;18.37;101105.73;105651;277;38493;-76
2023/05/01 07:26:28;;;;;;;4.80;2.70;;;;;;;26.36;17.73;101102.98;105009;277;888392;-74
2023/05/01 07:29:03;;;;;;;4.50;1.90;;;;;;;26.33;17.74;101102.55;106086;277;38444;-75
2023/05/01 07:31:37;;;;;;;4.30;2.20;;;;;;;26.59;17.93;101103.89;105645;277;39694;-76
2023/05/01 07:34:11;;;;;;;5.60;2.20;;;;;;;27.08;17.81;101103.94;105641;277;39651;-75
2023/05/01 07:36:45;;;;;;;3.00;2.10;;;;;;;27.44;17.52;101110.23;105662;277;39664;-77
2023/05/01 07:39:19;;;;;;;3.40;2.30;;;;;;;27.67;16.85;101101.20;105618;277;40103;-77
2023/05/01 07:41:53;;;;;;;4.30;2.00;;;;;;;27.60;16.95;101102.42;105638;277;38228;-74
2023/05/01 07:44:27;;;;;;;5.50;2.00;;;;;;;27.71;16.69;101105.83;106041;277;38237;-73
2023/05/01 07:47:05;;;;;;;3.30;2.00;;;;;;;28.12;16.27;101096.69;106076;277;40139;-76
2023/05/01 07:49:42;;;;;;;3.40;1.90;;;;;;;28.35;16.20;101095.89;105508;277;187493;-76
2023/05/01 07:52:16;;;;;;;4.70;2.60;;;;;;;28.46;16.36;101102.98;105637;277;38534;-78
2023/05/01 07:54:53;;;;;;;4.20;2.20;;;;;;;28.52;16.38;101095.58;105627;277;38351;-75
2023/05/01 07:57:27;;;;;;;3.80;2.20;;;;;;;28.52;16.25;101091.24;105647;277;38514;-75
2023/05/01 08:00:01;;;;;;;2.80;2.00;;;;;;;28.49;16.41;101094.23;106038;277;38678;-75
2023/05/01 08:02:35;;;;;;;3.40;2.40;;;;;;;28.56;16.43;101095.45;105626;277;39463;-75
2023/05/01 08:05:10;;;;;;;2.90;1.80;;;;;;;28.77;16.31;101098.35;105636;277;39771;-77
2023/05/01 08:07:44;;;;;;;2.80;2.30;;;;;;;29.02;16.38;101100.82;105398;279;40174;-77
2023/05/01 08:10:18;;;;;;;4.20;2.20;;;;;;;29.27;16.45;101099.38;106008;277;38227;-74
2023/05/01 08:12:52;;;;;;;5.30;2.50;;;;;;;29.45;15.50;101095.73;105599;277;38510;-74
2023/05/01 08:15:25;;;;;;;3.60;2.60;;;;;;;29.19;15.77;101101.73;106059;277;39235;-77
2023/05/01 08:17:59;;;;;;;6.00;2.50;;;;;;;29.20;16.29;101100.90;105644;277;39555;-77
2023/05/01 08:20:33;;;;;;;3.90;2.60;;;;;;;29.50;15.89;101096.09;105646;277;38218;-77
2023/05/01 08:23:07;;;;;;;3.00;2.40;;;;;;;29.53;15.28;101091.50;105641;277;38221;-77
2023/05/01 08:25:41;;;;;;;4.70;2.40;;;;;;;29.59;15.25;101096.18;105649;277;38218;-77
2023/05/01 08:28:16;;;;;;;4.60;3.60;;;;;;;29.70;15.86;101095.57;106015;277;38460;-77
2023/05/01 08:30:50;;;;;;;4.20;2.20;;;;;;;30.05;15.96;101095.26;105654;277;39613;-77
2023/05/01 08:33:24;;;;;;;4.00;2.40;;;;;;;30.38;15.28;101097.34;105370;277;40502;-77
2023/05/01 08:35:57;;;;;;;4.00;2.30;;;;;;;30.55;15.31;101096.20;105644;277;40190;-76
2023/05/01 08:38:31;;;;;;;3.70;2.30;;;;;;;30.64;14.96;101094.45;105387;277;38533;-76
2023/05/01 08:41:06;;;;;;;3.90;2.20;;;;;;;30.63;15.30;101093.63;105643;277;38395;-77
2023/05/01 08:43:40;;;;;;;5.50;2.60;;;;;;;30.46;15.00;101091.64;105658;277;39411;-77
2023/05/01 08:46:15;;;;;;;3.60;2.70;;;;;;;30.39;15.40;101090.25;105605;277;38336;-75
2023/05/01 08:48:49;;;;;;;3.80;2.50;;;;;;;30.60;15.21;101087.56;105654;277;39507;-75
2023/05/01 08:51:23;;;;;;;3.80;2.40;;;;;;;30.64;15.11;101089.23;105652;277;38802;-77
2023/05/01 08:53:57;;;;;;;3.00;2.40;;;;;;;30.75;15.36;101087.16;105647;277;38524;-77
2023/05/01 08:56:32;;;;;;;3.00;2.10;;;;;;;30.98;14.49;101091.11;105412;277;38671;-75
2023/05/01 08:59:07;;;;;;;3.90;2.50;;;;;;;30.91;15.03;101088.70;105574;277;38602;-75
2023/05/01 09:01:41;;;;;;;6.20;2.50;;;;;;;30.96;15.01;101086.56;106062;277;39683;-75
2023/05/01 09:04:14;;;;;;;3.30;2.40;;;;;;;30.89;14.50;101086.20;105573;277;39120;-75
2023/05/01 09:06:48;;;;;;;4.50;2.50;;;;;;;30.97;14.29;101084.08;105375;277;40588;-77
2023/05/01 09:09:22;;;;;;;3.60;2.20;;;;;;;30.96;14.43;101083.56;105359;279;39086;-77
2023/05/01 09:12:00;;;;;;;5.00;2.40;;;;;;;30.97;14.75;101077.77;105998;277;38541;-77
2023/05/01 09:14:34;;;;;;;4.70;2.10;;;;;;;30.97;14.53;101078.31;105376;279;38515;-76
2023/05/01 09:17:08;;;;;;;3.50;2.20;;;;;;;30.97;14.51;101074.77;105618;277;38264;-75
2023/05/01 09:19:42;;;;;;;4.50;2.20;;;;;;;30.85;14.54;101073.40;106018;277;38836;-75
2023/05/01 09:22:17;;;;;;;4.00;2.10;;;;;;;30.52;14.71;101069.48;105634;277;38565;-76
2023/05/01 09:24:51;;;;;;;3.90;2.10;;;;;;;30.21;14.98;101069.70;106044;277;39643;-77
2023/05/01 09:27:25;;;;;;;3.50;2.00;;;;;;;29.82;15.40;101068.53;105618;277;39442;-77
2023/05/01 09:29:59;;;;;;;4.10;2.20;;;;;;;29.20;15.81;101065.52;105596;277;39656;-74
2023/05/01 09:32:33;;;;;;;3.80;2.20;;;;;;;28.62;15.80;101066.52;105363;279;40289;-74
2023/05/01 09:35:17;;;;;;;4.50;2.60;;;;;;;28.08;16.35;101063.05;105552;277;564804;-76
2023/05/01 09:37:54;;;;;;;5.10;2.80;;;;;;;27.45;16.92;101063.36;105608;277;38587;-76
2023/05/01 09:40:30;;;;;;;4.10;2.10;;;;;;;26.99;17.14;101060.70;105379;277;38967;-76
2023/05/01 09:43:04;;;;;;;3.90;2.30;;;;;;;26.56;17.76;101058.01;105595;277;40888;-77
2023/05/01 09:45:38;;;;;;;4.20;2.60;;;;;;;26.27;18.44;101051.19;106008;277;38451;-76
2023/05/01 09:48:13;;;;;;;4.30;2.50;;;;;;;26.04;18.51;101051.55;105581;277;39856;-76
2023/05/01 09:50:47;;;;;;;3.30;2.30;;;;;;;25.76;18.74;101047.88;106050;277;38285;-74
2023/05/01 09:53:21;;;;;;;4.20;2.50;;;;;;;25.43;18.88;101048.53;105603;277;38632;-74
2023/05/01 09:56:03;;;;;;;3.60;2.20;;;;;;;25.09;18.76;101051.18;105583;277;39438;-75
2023/05/01 09:58:37;;;;;;;3.60;2.20;;;;;;;24.76;18.76;101052.27;105513;277;174073;-75
2023/05/01 10:01:11;;;;;;;3.60;2.70;;;;;;;24.38;18.99;101048.10;105389;277;39862;-77
2023/05/01 10:03:46;;;;;;;3.70;2.40;;;;;;;24.04;19.11;101047.02;105546;277;39936;-77
2023/05/01 10:06:31;;;;;;;5.40;2.30;;;;;;;23.72;19.17;101039.68;105992;277;39675;-76
2023/05/01 10:09:06;;;;;;;4.50;2.40;;;;;;;23.39;20.00;101039.04;105994;277;38821;-76
2023/05/01 10:11:52;;;;;;;5.90;2.80;;;;;;;23.28;20.54;101039.33;105573;277;39802;-75
2023/05/01 10:14:28;;;;;;;3.30;2.00;;;;;;;23.26;20.34;101039.19;105619;277;38599;-76
2023/05/01 10:17:02;;;;;;;7.40;2.30;;;;;;;23.06;20.13;101037.56;105598;277;39128;-76
2023/05/01 10:19:36;;;;;;;4.30;2.50;;;;;;;22.81;19.70;101035.08;105612;277;39662;-75
2023/05/01 10:22:10;;;;;;;5.50;2.70;;;;;;;22.57;19.71;101033.77;105694;277;39955;-76
2023/05/01 10:24:45;;;;;;;4.40;2.40;;;;;;;22.48;20.80;101033.60;105294;277;38849;-75
2023/05/01 10:27:18;;;;;;;4.60;2.40;;;;;;;22.50;20.75;101029.71;105330;277;39244;-75
2023/05/01 10:29:52;;;;;;;4.10;2.00;;;;;;;22.43;20.60;101024.38;105601;277;38301;-76
2023/05/01 10:32:26;;;;;;;3.60;1.90;;;;;;;22.27;20.22;101018.52;105984;277;38580;-76
2023/05/01 10:35:03;;;;;;;3.90;1.80;;;;;;;22.20;20.86;101013.20;106007;277;38443;-75
2023/05/01 10:37:45;;;;;;;3.50;2.00;;;;;;;22.26;21.23;101010.40;105626;277;38228;-76
2023/05/01 10:40:49;;;;;;;3.80;1.50;;;;;;;22.32;20.58;101007.65;105995;277;38755;-73
2023/05/01 10:43:27;;;;;;;4.50;1.90;;;;;;;22.09;20.21;101001.86;105240;283;38298;-73
2023/05/01 10:46:34;;;;;;;3.30;1.80;;;;;;;22.04;20.14;101010.08;105638;275;38266;-73
2023/05/01 10:49:08;;;;;;;5.00;2.00;;;;;;;21.92;19.71;101011.52;105577;277;39653;-73
2023/05/01 10:52:04;;;;;;;3.50;1.80;;;;;;;21.78;19.80;101007.96;105644;277;38208;-73
2023/05/01 10:54:38;;;;;;;4.30;2.10;;;;;;;21.70;20.53;100999.67;105600;277;38275;-75
2023/05/01 10:57:14;;;;;;;2.90;1.60;;;;;;;21.55;19.86;100995.98;105860;277;173904;-74
2023/05/01 11:00:17;;;;;;;2.90;1.70;;;;;;;21.41;20.13;100993.33;105594;277;38224;-75
2023/05/01 11:02:51;;;;;;;3.20;2.10;;;;;;;21.31;20.78;100984.98;105633;278;38220;-74
2023/05/01 11:05:43;;;;;;;3.10;1.80;;;;;;;21.34;21.95;100983.49;105618;277;38772;-75
2023/05/01 11:08:34;;;;;;;4.90;2.10;;;;;;;21.37;22.19;100983.48;105634;277;38236;-76
2023/05/01 11:11:50;;;;;;;4.50;1.80;;;;;;;21.22;21.76;100979.78;105978;277;39516;-74
2023/05/01 11:14:24;;;;;;;5.10;2.00;;;;;;;21.06;22.19;100980.55;105634;277;38514;-74
2023/05/01 11:16:58;;;;;;;2.80;2.00;;;;;;;20.99;20.92;100975.59;105663;277;38265;-75
2023/05/01 11:19:49;;;;;;;3.90;1.60;;;;;;;20.68;20.27;100967.89;105671;277;38401;-73
2023/05/01 11:22:23;;;;;;;4.00;1.80;;;;;;;20.48;20.70;100965.36;105977;277;39721;-73
2023/05/01 11:24:57;;;;;;;4.20;2.00;;;;;;;20.43;20.99;100968.75;105687;277;39944;-73
2023/05/01 11:27:31;;;;;;;3.20;1.60;;;;;;;20.36;20.36;100962.27;105998;277;38857;-73
2023/05/01 11:30:06;;;;;;;3.20;1.60;;;;;;;20.30;20.90;100960.37;105620;277;39905;-75
2023/05/01 11:32:39;;;;;;;4.40;1.40;;;;;;;20.27;20.95;100955.27;105573;277;38243;-75
2023/05/01 11:35:18;;;;;;;3.90;1.50;;;;;;;20.20;21.09;100954.75;105650;277;38435;-74
2023/05/01 11:37:54;;;;;;;2.80;1.60;;;;;;;20.10;21.71;100957.15;105970;277;38542;-74
2023/05/01 11:40:29;;;;;;;4.90;2.10;;;;;;;20.06;22.08;100950.68;105638;277;38840;-75
2023/05/01 11:43:07;;;;;;;4.10;2.20;;;;;;;20.02;22.47;100947.60;105588;277;38246;-75
2023/05/01 11:45:40;;;;;;;3.70;1.80;;;;;;;19.94;22.48;100943.90;105983;277;38469;-72
2023/05/01 11:48:19;;;;;;;3.20;1.60;;;;;;;19.87;22.06;100940.17;105639;277;39672;-72
2023/05/01 11:50:53;;;;;;;3.10;1.70;;;;;;;19.80;21.74;100941.83;106030;277;38545;-74
2023/05/01 11:53:27;;;;;;;4.20;1.80;;;;;;;19.67;21.07;100937.64;105629;277;38401;-74
2023/05/01 11:56:02;;;;;;;4.70;2.00;;;;;;;19.52;21.26;100931.30;105670;277;39433;-73
2023/05/01 11:58:36;;;;;;;3.60;1.70;;;;;;;19.39;21.81;100924.89;105609;277;40170;-73
2023/05/01 12:01:11;;;;;;;3.60;1.90;;;;;;;19.32;22.23;100929.09;105630;277;39455;-72
2023/05/01 12:03:45;;;;;;;2.50;1.60;;;;;;;19.30;22.83;100922.69;105640;277;38460;-72